Terminal Aerodrome Forecast
Issued by NWS

Home | Current Version | Previous Version | Text Only | Print | Product List | Glossary On
Versions: 1 2 3 4 5 6 7 8 9 10 11 12 13 14 15 16 17 18 19 20 21 22
448
FTUS41 KBGM 221207 AAA
TAFELM
TAF AMD
KELM 221207Z 2212/2312 03005KT P6SM -RA SCT025 OVC050
     FM221330 04004KT 2SM -SNPL OVC015
     FM221700 05004KT 2SM -SN OVC012
     FM222200 06004KT P6SM OVC015
     FM230200 VRB03KT P6SM OVC050=

USA.gov is the U.S. government's official web portal to all federal, state and local government web resources and services.